createdAt,value
2023-03-16T04:47:04.087Z,78.92
2023-03-16T04:50:10.754Z,77.93
2023-03-16T04:53:13.776Z,76.89
2023-03-16T04:56:19.997Z,77.27
2023-03-16T04:59:24.150Z,75.91
2023-03-16T05:02:27.924Z,75.14
2023-03-16T05:05:31.289Z,74.63
2023-03-16T05:08:34.482Z,74.68
2023-03-16T05:11:37.814Z,75.93
2023-03-16T05:14:41.535Z,74.71
2023-03-16T05:17:44.624Z,74.23
2023-03-16T05:20:56.082Z,74.00
2023-03-16T05:23:59.906Z,74.19
2023-03-16T05:27:03.234Z,74.54
2023-03-16T05:30:06.873Z,75.31
2023-03-16T05:33:10.857Z,72.39
2023-03-16T05:36:13.977Z,72.89
2023-03-16T05:39:17.764Z,73.14
2023-03-16T05:42:21.212Z,71.83
2023-03-16T05:45:24.787Z,70.49
2023-03-16T05:48:28.478Z,71.21
2023-03-16T05:51:32.581Z,70.33
2023-03-16T05:54:36.037Z,69.76
2023-03-16T05:57:39.157Z,69.37
2023-03-16T06:00:42.070Z,68.00
2023-03-16T06:03:47.365Z,66.92
2023-03-16T06:06:51.231Z,66.88
2023-03-16T06:09:54.831Z,66.02
2023-03-16T06:12:59.819Z,65.62
2023-03-16T06:16:06.639Z,62.47
2023-03-16T06:19:10.687Z,57.61
2023-03-16T06:22:14.568Z,56.58
2023-03-16T06:25:17.939Z,56.71
2023-03-16T06:28:22.802Z,59.15
2023-03-16T06:31:25.974Z,59.46
2023-03-16T06:34:31.936Z,59.40
2023-03-16T06:37:34.725Z,58.70
2023-03-16T06:40:38.184Z,58.78
2023-03-16T06:43:42.537Z,58.81
2023-03-16T06:46:45.884Z,57.69
2023-03-16T06:49:48.825Z,57.59
2023-03-16T06:52:52.143Z,56.67
2023-03-16T06:55:55.049Z,56.33
2023-03-16T06:58:58.312Z,56.85
2023-03-16T07:02:02.025Z,56.05
2023-03-16T07:05:07.405Z,55.48
2023-03-16T07:08:10.379Z,56.24
2023-03-16T07:11:14.894Z,55.57
2023-03-16T07:14:19.656Z,55.29
2023-03-16T07:17:24.379Z,54.87
2023-03-16T07:20:29.103Z,54.76
2023-03-16T07:23:36.042Z,55.11
2023-03-16T07:26:39.136Z,53.80
2023-03-16T07:29:43.414Z,52.90
2023-03-16T07:32:46.152Z,53.35
2023-03-16T07:35:50.098Z,53.38
2023-03-16T07:38:53.185Z,53.31
2023-03-16T07:41:56.206Z,52.73
2023-03-16T07:45:05.831Z,52.94
2023-03-16T07:48:09.176Z,51.64
2023-03-16T07:51:15.536Z,51.50
2023-03-16T07:54:20.886Z,50.86
2023-03-16T07:57:23.546Z,51.14
2023-03-16T08:00:27.133Z,51.24
2023-03-16T08:03:32.395Z,52.32
2023-03-16T08:06:35.227Z,51.77
2023-03-16T08:09:38.744Z,52.54
2023-03-16T08:12:41.967Z,52.19
2023-03-16T08:15:50.444Z,51.62
2023-03-16T08:18:57.132Z,50.12
2023-03-16T08:22:03.682Z,50.01
2023-03-16T08:25:12.316Z,49.21
2023-03-16T08:28:17.135Z,47.02
2023-03-16T08:31:21.537Z,47.05
2023-03-16T08:34:25.447Z,47.65
2023-03-16T08:37:28.493Z,47.84
2023-03-16T08:40:34.878Z,47.36
2023-03-16T08:43:37.791Z,48.05
2023-03-16T08:46:42.494Z,46.09
2023-03-16T08:49:49.259Z,46.31
2023-03-16T08:52:52.293Z,44.97
2023-03-16T08:56:04.706Z,46.30
2023-03-16T08:59:10.477Z,45.91
2023-03-16T09:02:20.753Z,43.79
2023-03-16T09:05:25.464Z,44.24
2023-03-16T09:08:28.692Z,44.22
2023-03-16T09:11:34.619Z,45.42
2023-03-16T09:14:38.659Z,45.46
2023-03-16T09:17:43.169Z,44.63
2023-03-16T09:20:47.905Z,45.83
2023-03-16T09:23:50.995Z,45.63
2023-03-16T09:26:54.004Z,44.19
2023-03-16T09:29:59.520Z,45.18
2023-03-16T09:33:02.285Z,45.64
2023-03-16T09:36:05.711Z,45.00
2023-03-16T09:39:08.900Z,45.44
2023-03-16T09:42:18.303Z,45.58
2023-03-16T09:45:32.223Z,44.86
2023-03-16T09:48:38.165Z,44.38
2023-03-16T09:52:06.404Z,41.92
2023-03-16T09:55:37.837Z,40.43
2023-03-16T09:58:41.101Z,39.79
2023-03-16T10:02:23.134Z,39.81
2023-03-16T10:05:27.472Z,40.23
2023-03-16T10:08:39.437Z,39.47
2023-03-16T10:11:48.581Z,39.22
2023-03-16T10:15:10.349Z,38.54
2023-03-16T10:18:20.456Z,38.09
2023-03-16T10:21:24.672Z,37.81
2023-03-16T10:24:56.784Z,38.04
2023-03-16T10:27:59.617Z,37.97
2023-03-16T10:31:03.545Z,37.78
2023-03-16T10:34:06.967Z,37.76
2023-03-16T10:37:13.918Z,37.46
2023-03-16T10:40:16.805Z,36.23
2023-03-16T10:43:20.417Z,37.13
2023-03-16T10:46:28.162Z,35.83
2023-03-16T10:49:44.508Z,35.85
2023-03-16T10:52:49.670Z,35.68
2023-03-16T10:55:59.157Z,35.23
2023-03-16T10:59:13.162Z,35.10
2023-03-16T11:02:20.788Z,35.05
2023-03-16T11:05:23.965Z,35.57
2023-03-16T11:08:32.608Z,33.73
2023-03-16T11:11:36.436Z,32.92
2023-03-16T11:14:49.232Z,32.43
2023-03-16T11:17:53.656Z,32.66
2023-03-16T11:21:03.577Z,31.37
2023-03-16T11:24:24.352Z,30.53
2023-03-16T11:27:39.648Z,30.80
2023-03-16T11:30:48.750Z,29.77
2023-03-16T11:33:54.385Z,29.34
2023-03-16T11:37:10.763Z,29.79
2023-03-16T11:40:43.027Z,28.19
2023-03-16T11:44:13.100Z,27.45
2023-03-16T11:47:26.997Z,26.30
2023-03-16T11:50:49.939Z,24.71
2023-03-16T11:54:18.758Z,23.17
2023-03-16T11:57:52.475Z,24.26
2023-03-16T12:01:21.010Z,23.00
2023-03-16T12:04:45.152Z,22.02
2023-03-16T12:08:19.549Z,19.27
2023-03-16T12:11:32.361Z,18.05
2023-03-16T12:14:46.954Z,17.11
2023-03-16T12:17:54.065Z,17.06
2023-03-16T12:21:02.831Z,15.20
2023-03-16T12:24:12.277Z,15.13
2023-03-16T12:27:21.140Z,14.63
2023-03-16T12:31:12.396Z,14.71
2023-03-16T12:34:30.093Z,13.57
2023-03-16T12:37:55.258Z,12.99
2023-03-16T12:41:17.935Z,11.57
2023-03-16T12:44:46.133Z,12.18
2023-03-16T12:48:08.917Z,12.23
2023-03-16T12:51:12.586Z,12.78
2023-03-16T12:54:24.035Z,12.67
2023-03-16T12:57:27.271Z,12.15
2023-03-16T13:00:41.476Z,12.75
2023-03-16T13:03:48.272Z,13.02
2023-03-16T13:07:01.964Z,15.13
2023-03-16T13:10:17.229Z,14.36
2023-03-16T13:13:25.482Z,12.03
2023-03-16T13:16:33.210Z,12.03
2023-03-16T13:19:37.747Z,11.31
2023-03-16T13:23:07.485Z,10.89
2023-03-16T13:26:23.702Z,10.32
2023-03-16T13:29:32.023Z,10.12
2023-03-16T13:32:36.091Z,9.82
2023-03-16T13:35:39.624Z,9.89
2023-03-16T13:38:42.426Z,11.30
2023-03-16T13:42:14.553Z,11.46
2023-03-16T13:45:23.893Z,11.70
2023-03-16T13:48:26.856Z,12.13
2023-03-16T13:51:34.294Z,12.25
2023-03-16T13:54:37.577Z,12.35
2023-03-16T13:57:42.154Z,12.99
2023-03-16T14:00:45.870Z,13.82
2023-03-16T14:03:49.340Z,13.98
2023-03-16T14:06:59.363Z,14.88
2023-03-16T14:10:05.285Z,15.81
2023-03-16T14:13:24.113Z,18.09
2023-03-16T14:16:28.999Z,18.08
2023-03-16T14:19:42.484Z,18.10
2023-03-16T14:22:45.524Z,19.11
2023-03-16T14:25:49.697Z,18.59
2023-03-16T14:28:57.482Z,17.84
2023-03-16T14:32:00.529Z,18.02
2023-03-16T14:35:20.235Z,17.77
2023-03-16T14:38:29.112Z,18.05
2023-03-16T14:41:33.439Z,18.98
2023-03-16T14:44:38.620Z,20.17
2023-03-16T14:47:44.500Z,21.08
2023-03-16T14:50:54.660Z,21.52
2023-03-16T14:53:57.892Z,21.63
2023-03-16T14:57:03.866Z,22.62
2023-03-16T15:00:10.240Z,22.91
2023-03-16T15:03:17.440Z,23.15
2023-03-16T15:06:21.666Z,22.62
2023-03-16T15:09:34.405Z,22.63
2023-03-16T15:12:38.054Z,23.22
2023-03-16T15:15:42.981Z,22.62
2023-03-16T15:18:46.604Z,21.65
2023-03-16T15:21:49.404Z,22.14
2023-03-16T15:24:52.615Z,22.04
2023-03-16T15:27:55.574Z,22.71
2023-03-16T15:31:00.765Z,21.78
2023-03-16T15:34:03.508Z,22.38
2023-03-16T15:37:06.761Z,22.11
2023-03-16T15:40:19.322Z,22.46
2023-03-16T15:43:24.684Z,22.57
2023-03-16T15:46:28.227Z,22.20
2023-03-16T15:49:37.764Z,21.93
2023-03-16T15:52:52.171Z,22.61
2023-03-16T15:56:08.884Z,22.80
2023-03-16T15:59:17.010Z,22.82
2023-03-16T16:02:29.581Z,22.87
2023-03-16T16:05:33.203Z,22.91
2023-03-16T16:08:35.975Z,23.15
2023-03-16T16:11:40.264Z,23.48
2023-03-16T16:14:43.149Z,24.50
2023-03-16T16:18:01.901Z,24.06
2023-03-16T16:21:15.928Z,24.34
2023-03-16T16:24:19.313Z,24.91
2023-03-16T16:27:22.038Z,24.64
2023-03-16T16:30:28.509Z,24.34
2023-03-16T16:33:33.924Z,24.21
2023-03-16T16:36:36.891Z,24.21
2023-03-16T16:39:40.557Z,24.20
2023-03-16T16:42:45.178Z,25.06
2023-03-16T16:45:48.946Z,24.42
2023-03-16T16:48:58.906Z,24.81
2023-03-16T16:52:02.368Z,25.37
2023-03-16T16:55:05.731Z,25.73
2023-03-16T16:58:18.513Z,25.73
